sensor_id;sensor_type;location;lat;lon;timestamp;pressure;altitude;pressure_sealevel;temperature;humidity
31285;BME280;56605;51.516;6.742;2022-11-20T00:00:27;101103.06;;;-3.19;100.00
31285;BME280;56605;51.516;6.742;2022-11-20T00:02:52;101106.16;;;-3.11;100.00
31285;BME280;56605;51.516;6.742;2022-11-20T00:05:17;101103.56;;;-3.11;100.00
31285;BME280;56605;51.516;6.742;2022-11-20T00:07:43;101105.22;;;-3.08;100.00
31285;BME280;56605;51.516;6.742;2022-11-20T00:10:08;101094.44;;;-3.21;100.00
31285;BME280;56605;51.516;6.742;2022-11-20T00:12:34;101099.59;;;-3.20;100.00
31285;BME280;56605;51.516;6.742;2022-11-20T00:14:59;101099.69;;;-3.02;100.00
31285;BME280;56605;51.516;6.742;2022-11-20T00:17:25;101098.91;;;-3.04;100.00
31285;BME280;56605;51.516;6.742;2022-11-20T00:19:50;101100.38;;;-3.17;100.00
31285;BME280;56605;51.516;6.742;2022-11-20T00:22:15;101095.72;;;-3.30;100.00
31285;BME280;56605;51.516;6.742;2022-11-20T00:24:40;101103.53;;;-3.30;100.00
31285;BME280;56605;51.516;6.742;2022-11-20T00:27:06;101103.13;;;-3.21;100.00
31285;BME280;56605;51.516;6.742;2022-11-20T00:29:31;101096.91;;;-3.18;100.00
31285;BME280;56605;51.516;6.742;2022-11-20T00:31:56;101093.09;;;-3.30;100.00
31285;BME280;56605;51.516;6.742;2022-11-20T00:34:22;101095.16;;;-3.37;100.00
31285;BME280;56605;51.516;6.742;2022-11-20T00:36:47;101090.72;;;-3.15;100.00
31285;BME280;56605;51.516;6.742;2022-11-20T00:39:12;101088.03;;;-3.14;100.00
31285;BME280;56605;51.516;6.742;2022-11-20T00:41:38;101088.31;;;-3.39;100.00
31285;BME280;56605;51.516;6.742;2022-11-20T00:44:03;101090.25;;;-3.45;100.00
31285;BME280;56605;51.516;6.742;2022-11-20T00:46:29;101085.28;;;-3.51;100.00
31285;BME280;56605;51.516;6.742;2022-11-20T00:48:54;101090.84;;;-3.38;100.00
31285;BME280;56605;51.516;6.742;2022-11-20T00:51:22;101086.66;;;-3.42;100.00
31285;BME280;56605;51.516;6.742;2022-11-20T00:53:48;101089.66;;;-3.31;100.00
31285;BME280;56605;51.516;6.742;2022-11-20T00:56:15;101088.88;;;-3.33;100.00
31285;BME280;56605;51.516;6.742;2022-11-20T00:58:43;101087.94;;;-3.32;100.00
31285;BME280;56605;51.516;6.742;2022-11-20T01:01:11;101087.31;;;-3.37;100.00
31285;BME280;56605;51.516;6.742;2022-11-20T01:03:41;101085.16;;;-3.48;100.00
31285;BME280;56605;51.516;6.742;2022-11-20T01:06:11;101084.84;;;-3.40;100.00
31285;BME280;56605;51.516;6.742;2022-11-20T01:08:37;101080.34;;;-3.36;100.00
31285;BME280;56605;51.516;6.742;2022-11-20T01:11:08;101080.81;;;-3.47;100.00
31285;BME280;56605;51.516;6.742;2022-11-20T01:13:35;101076.72;;;-3.53;100.00
31285;BME280;56605;51.516;6.742;2022-11-20T01:16:24;101075.38;;;-3.42;100.00
31285;BME280;56605;51.516;6.742;2022-11-20T01:18:52;101070.63;;;-3.53;100.00
31285;BME280;56605;51.516;6.742;2022-11-20T01:21:19;101059.63;;;-3.60;100.00
31285;BME280;56605;51.516;6.742;2022-11-20T01:23:46;101060.25;;;-3.55;100.00
31285;BME280;56605;51.516;6.742;2022-11-20T01:26:18;101062.09;;;-3.57;100.00
31285;BME280;56605;51.516;6.742;2022-11-20T01:28:43;101067.66;;;-3.65;100.00
31285;BME280;56605;51.516;6.742;2022-11-20T01:31:21;101066.06;;;-3.48;100.00
31285;BME280;56605;51.516;6.742;2022-11-20T01:33:48;101065.31;;;-3.71;100.00
31285;BME280;56605;51.516;6.742;2022-11-20T01:36:15;101068.09;;;-3.55;100.00
31285;BME280;56605;51.516;6.742;2022-11-20T01:38:41;101060.19;;;-3.53;100.00
31285;BME280;56605;51.516;6.742;2022-11-20T01:41:07;101064.78;;;-3.59;100.00
31285;BME280;56605;51.516;6.742;2022-11-20T01:43:32;101068.84;;;-3.72;100.00
31285;BME280;56605;51.516;6.742;2022-11-20T01:46:12;101064.41;;;-3.91;100.00
31285;BME280;56605;51.516;6.742;2022-11-20T01:48:51;101058.97;;;-3.65;100.00
31285;BME280;56605;51.516;6.742;2022-11-20T01:51:42;101053.09;;;-3.71;100.00
31285;BME280;56605;51.516;6.742;2022-11-20T01:54:14;101062.94;;;-3.77;100.00
31285;BME280;56605;51.516;6.742;2022-11-20T01:56:43;101064.72;;;-3.78;100.00
31285;BME280;56605;51.516;6.742;2022-11-20T01:59:10;101063.13;;;-3.61;100.00
31285;BME280;56605;51.516;6.742;2022-11-20T02:01:38;101070.50;;;-3.71;100.00
31285;BME280;56605;51.516;6.742;2022-11-20T02:04:04;101064.59;;;-3.75;100.00
31285;BME280;56605;51.516;6.742;2022-11-20T02:06:55;101056.72;;;-3.73;100.00
31285;BME280;56605;51.516;6.742;2022-11-20T02:09:24;101053.03;;;-3.69;100.00
31285;BME280;56605;51.516;6.742;2022-11-20T02:11:49;101057.63;;;-3.55;100.00
31285;BME280;56605;51.516;6.742;2022-11-20T02:14:14;101053.28;;;-3.54;100.00
31285;BME280;56605;51.516;6.742;2022-11-20T02:16:44;101047.56;;;-3.63;100.00
31285;BME280;56605;51.516;6.742;2022-11-20T02:19:26;101050.47;;;-3.50;100.00
31285;BME280;56605;51.516;6.742;2022-11-20T02:22:09;101050.34;;;-3.27;100.00
31285;BME280;56605;51.516;6.742;2022-11-20T02:24:39;101041.44;;;-3.42;100.00
31285;BME280;56605;51.516;6.742;2022-11-20T02:27:09;101037.84;;;-3.40;100.00
31285;BME280;56605;51.516;6.742;2022-11-20T02:29:49;101038.97;;;-3.26;100.00
31285;BME280;56605;51.516;6.742;2022-11-20T02:32:19;101030.41;;;-3.30;100.00
31285;BME280;56605;51.516;6.742;2022-11-20T02:34:45;101032.53;;;-3.38;100.00
31285;BME280;56605;51.516;6.742;2022-11-20T02:37:10;101033.75;;;-3.26;100.00
31285;BME280;56605;51.516;6.742;2022-11-20T02:39:35;101025.50;;;-3.17;100.00
31285;BME280;56605;51.516;6.742;2022-11-20T02:42:01;101025.66;;;-3.20;100.00
31285;BME280;56605;51.516;6.742;2022-11-20T02:44:27;101027.25;;;-3.17;100.00
31285;BME280;56605;51.516;6.742;2022-11-20T02:46:52;101030.78;;;-2.99;100.00
31285;BME280;56605;51.516;6.742;2022-11-20T02:49:18;101033.94;;;-2.93;100.00
31285;BME280;56605;51.516;6.742;2022-11-20T02:51:43;101025.19;;;-2.91;100.00
31285;BME280;56605;51.516;6.742;2022-11-20T02:54:08;101026.44;;;-2.81;100.00
31285;BME280;56605;51.516;6.742;2022-11-20T02:56:34;101025.41;;;-2.96;100.00
31285;BME280;56605;51.516;6.742;2022-11-20T02:58:59;101017.28;;;-3.09;100.00
31285;BME280;56605;51.516;6.742;2022-11-20T03:01:24;101024.91;;;-3.04;100.00
31285;BME280;56605;51.516;6.742;2022-11-20T03:03:50;101027.72;;;-3.09;100.00
31285;BME280;56605;51.516;6.742;2022-11-20T03:06:16;101021.16;;;-2.99;100.00
31285;BME280;56605;51.516;6.742;2022-11-20T03:08:42;101016.66;;;-2.95;100.00
31285;BME280;56605;51.516;6.742;2022-11-20T03:11:08;101019.19;;;-2.94;100.00
31285;BME280;56605;51.516;6.742;2022-11-20T03:13:34;101025.75;;;-2.85;100.00
31285;BME280;56605;51.516;6.742;2022-11-20T03:16:08;101027.78;;;-2.91;100.00
31285;BME280;56605;51.516;6.742;2022-11-20T03:18:33;101019.31;;;-2.77;100.00
31285;BME280;56605;51.516;6.742;2022-11-20T03:20:59;101021.19;;;-2.81;100.00
31285;BME280;56605;51.516;6.742;2022-11-20T03:23:24;101018.69;;;-2.65;100.00
31285;BME280;56605;51.516;6.742;2022-11-20T03:25:50;101018.00;;;-2.69;100.00
31285;BME280;56605;51.516;6.742;2022-11-20T03:28:15;101019.19;;;-2.57;100.00
31285;BME280;56605;51.516;6.742;2022-11-20T03:30:40;101017.50;;;-2.58;100.00
31285;BME280;56605;51.516;6.742;2022-11-20T03:33:06;101018.53;;;-2.62;100.00
31285;BME280;56605;51.516;6.742;2022-11-20T03:35:31;101012.94;;;-2.54;100.00
31285;BME280;56605;51.516;6.742;2022-11-20T03:37:57;101005.53;;;-2.63;100.00
31285;BME280;56605;51.516;6.742;2022-11-20T03:40:22;101008.47;;;-2.70;100.00
31285;BME280;56605;51.516;6.742;2022-11-20T03:42:47;101009.25;;;-2.68;100.00
31285;BME280;56605;51.516;6.742;2022-11-20T03:45:17;101013.47;;;-2.47;100.00
31285;BME280;56605;51.516;6.742;2022-11-20T03:47:43;101009.97;;;-2.46;100.00
31285;BME280;56605;51.516;6.742;2022-11-20T03:50:10;101006.50;;;-2.47;100.00
31285;BME280;56605;51.516;6.742;2022-11-20T03:52:37;101001.56;;;-2.35;100.00
31285;BME280;56605;51.516;6.742;2022-11-20T03:55:04;101004.72;;;-2.46;100.00
31285;BME280;56605;51.516;6.742;2022-11-20T03:57:29;101006.97;;;-2.38;100.00
31285;BME280;56605;51.516;6.742;2022-11-20T03:59:54;101000.50;;;-2.49;100.00
31285;BME280;56605;51.516;6.742;2022-11-20T04:02:20;100994.72;;;-2.56;100.00
31285;BME280;56605;51.516;6.742;2022-11-20T04:04:45;100997.69;;;-2.63;100.00
31285;BME280;56605;51.516;6.742;2022-11-20T04:07:10;100998.78;;;-2.68;100.00
31285;BME280;56605;51.516;6.742;2022-11-20T04:09:35;101005.88;;;-2.70;100.00
31285;BME280;56605;51.516;6.742;2022-11-20T04:12:01;101003.78;;;-2.63;100.00
31285;BME280;56605;51.516;6.742;2022-11-20T04:14:26;100996.09;;;-2.66;100.00
31285;BME280;56605;51.516;6.742;2022-11-20T04:16:51;100990.13;;;-2.50;100.00
31285;BME280;56605;51.516;6.742;2022-11-20T04:19:16;100989.50;;;-2.56;100.00
31285;BME280;56605;51.516;6.742;2022-11-20T04:21:43;100991.66;;;-2.46;100.00
31285;BME280;56605;51.516;6.742;2022-11-20T04:24:08;100996.97;;;-2.48;100.00
31285;BME280;56605;51.516;6.742;2022-11-20T04:26:35;100991.88;;;-2.51;100.00
31285;BME280;56605;51.516;6.742;2022-11-20T04:29:00;100992.25;;;-2.41;100.00
31285;BME280;56605;51.516;6.742;2022-11-20T04:31:32;100986.66;;;-2.51;100.00
31285;BME280;56605;51.516;6.742;2022-11-20T04:34:05;100994.28;;;-2.46;100.00
31285;BME280;56605;51.516;6.742;2022-11-20T04:36:31;100987.44;;;-2.49;100.00
31285;BME280;56605;51.516;6.742;2022-11-20T04:38:59;100990.19;;;-2.52;100.00
31285;BME280;56605;51.516;6.742;2022-11-20T04:41:27;100992.25;;;-2.41;100.00
31285;BME280;56605;51.516;6.742;2022-11-20T04:43:55;100993.19;;;-2.42;100.00
31285;BME280;56605;51.516;6.742;2022-11-20T04:46:27;100992.19;;;-2.39;100.00
31285;BME280;56605;51.516;6.742;2022-11-20T04:48:52;100987.81;;;-2.39;100.00
31285;BME280;56605;51.516;6.742;2022-11-20T04:51:18;100990.13;;;-2.33;100.00
31285;BME280;56605;51.516;6.742;2022-11-20T04:53:43;100988.25;;;-2.31;100.00
31285;BME280;56605;51.516;6.742;2022-11-20T04:56:10;100997.31;;;-2.20;100.00
31285;BME280;56605;51.516;6.742;2022-11-20T04:58:37;100993.00;;;-2.04;100.00
31285;BME280;56605;51.516;6.742;2022-11-20T05:01:04;100985.88;;;-2.00;100.00
31285;BME280;56605;51.516;6.742;2022-11-20T05:03:30;100980.88;;;-2.05;100.00
31285;BME280;56605;51.516;6.742;2022-11-20T05:05:55;100981.06;;;-1.92;100.00
31285;BME280;56605;51.516;6.742;2022-11-20T05:08:21;100995.00;;;-1.91;100.00
31285;BME280;56605;51.516;6.742;2022-11-20T05:10:47;100990.25;;;-2.00;100.00
31285;BME280;56605;51.516;6.742;2022-11-20T05:13:12;100985.16;;;-2.04;100.00
31285;BME280;56605;51.516;6.742;2022-11-20T05:15:37;100986.59;;;-1.98;100.00
31285;BME280;56605;51.516;6.742;2022-11-20T05:18:03;100984.00;;;-1.98;100.00
31285;BME280;56605;51.516;6.742;2022-11-20T05:20:28;100989.38;;;-2.01;100.00
31285;BME280;56605;51.516;6.742;2022-11-20T05:22:57;100986.19;;;-2.06;100.00
31285;BME280;56605;51.516;6.742;2022-11-20T05:25:22;100986.38;;;-1.93;100.00
31285;BME280;56605;51.516;6.742;2022-11-20T05:27:47;100991.00;;;-1.98;100.00
31285;BME280;56605;51.516;6.742;2022-11-20T05:30:13;100981.69;;;-2.04;100.00
31285;BME280;56605;51.516;6.742;2022-11-20T05:32:38;100985.47;;;-2.10;100.00
31285;BME280;56605;51.516;6.742;2022-11-20T05:35:04;100978.84;;;-1.99;100.00
31285;BME280;56605;51.516;6.742;2022-11-20T05:37:29;100980.09;;;-2.07;100.00
31285;BME280;56605;51.516;6.742;2022-11-20T05:39:54;100975.41;;;-2.18;100.00
31285;BME280;56605;51.516;6.742;2022-11-20T05:42:20;100980.72;;;-2.01;100.00
31285;BME280;56605;51.516;6.742;2022-11-20T05:45:02;100978.47;;;-2.09;100.00
31285;BME280;56605;51.516;6.742;2022-11-20T05:47:31;100985.78;;;-2.16;100.00
31285;BME280;56605;51.516;6.742;2022-11-20T05:49:57;100989.38;;;-2.01;100.00
31285;BME280;56605;51.516;6.742;2022-11-20T05:52:22;100981.31;;;-2.14;100.00
31285;BME280;56605;51.516;6.742;2022-11-20T05:54:47;100978.19;;;-2.21;100.00
31285;BME280;56605;51.516;6.742;2022-11-20T05:57:13;100979.09;;;-2.22;100.00
31285;BME280;56605;51.516;6.742;2022-11-20T05:59:38;100984.03;;;-2.33;100.00
31285;BME280;56605;51.516;6.742;2022-11-20T06:02:03;100980.50;;;-2.32;100.00
31285;BME280;56605;51.516;6.742;2022-11-20T06:04:29;100978.03;;;-2.35;100.00
31285;BME280;56605;51.516;6.742;2022-11-20T06:06:54;100972.28;;;-2.42;100.00
31285;BME280;56605;51.516;6.742;2022-11-20T06:09:19;100976.03;;;-2.30;100.00
31285;BME280;56605;51.516;6.742;2022-11-20T06:11:44;100971.34;;;-2.41;100.00
31285;BME280;56605;51.516;6.742;2022-11-20T06:14:10;100973.81;;;-2.38;100.00
31285;BME280;56605;51.516;6.742;2022-11-20T06:16:35;100983.03;;;-2.31;100.00
31285;BME280;56605;51.516;6.742;2022-11-20T06:19:00;100979.88;;;-2.37;100.00
31285;BME280;56605;51.516;6.742;2022-11-20T06:21:26;100983.81;;;-2.46;100.00
31285;BME280;56605;51.516;6.742;2022-11-20T06:23:52;100983.44;;;-2.38;100.00
31285;BME280;56605;51.516;6.742;2022-11-20T06:26:21;100983.81;;;-2.28;100.00
31285;BME280;56605;51.516;6.742;2022-11-20T06:28:47;100982.34;;;-2.34;100.00
31285;BME280;56605;51.516;6.742;2022-11-20T06:31:14;100983.25;;;-2.35;100.00
31285;BME280;56605;51.516;6.742;2022-11-20T06:33:40;100990.34;;;-2.55;100.00
31285;BME280;56605;51.516;6.742;2022-11-20T06:36:06;100982.22;;;-2.49;100.00
31285;BME280;56605;51.516;6.742;2022-11-20T06:38:31;100982.59;;;-2.39;100.00
31285;BME280;56605;51.516;6.742;2022-11-20T06:40:56;100987.09;;;-2.43;100.00
31285;BME280;56605;51.516;6.742;2022-11-20T06:43:23;100992.09;;;-2.38;100.00
31285;BME280;56605;51.516;6.742;2022-11-20T06:45:55;100990.13;;;-2.50;100.00
31285;BME280;56605;51.516;6.742;2022-11-20T06:48:21;100989.88;;;-2.46;100.00
31285;BME280;56605;51.516;6.742;2022-11-20T06:50:46;100994.88;;;-2.41;100.00
31285;BME280;56605;51.516;6.742;2022-11-20T06:53:12;100997.97;;;-2.50;100.00
31285;BME280;56605;51.516;6.742;2022-11-20T06:55:44;100990.50;;;-2.40;100.00
31285;BME280;56605;51.516;6.742;2022-11-20T06:58:10;100990.44;;;-2.39;100.00
31285;BME280;56605;51.516;6.742;2022-11-20T07:00:36;101005.41;;;-2.25;100.00
31285;BME280;56605;51.516;6.742;2022-11-20T07:03:05;101008.44;;;-2.15;100.00
31285;BME280;56605;51.516;6.742;2022-11-20T07:05:31;101006.78;;;-2.00;100.00
31285;BME280;56605;51.516;6.742;2022-11-20T07:07:57;101010.16;;;-1.98;100.00
31285;BME280;56605;51.516;6.742;2022-11-20T07:10:22;101004.84;;;-1.96;100.00
31285;BME280;56605;51.516;6.742;2022-11-20T07:12:52;101012.63;;;-1.95;100.00
31285;BME280;56605;51.516;6.742;2022-11-20T07:15:19;101014.22;;;-1.92;100.00
31285;BME280;56605;51.516;6.742;2022-11-20T07:17:44;101017.84;;;-1.95;100.00
31285;BME280;56605;51.516;6.742;2022-11-20T07:20:10;101017.00;;;-1.95;100.00
31285;BME280;56605;51.516;6.742;2022-11-20T07:22:36;101016.09;;;-1.94;100.00
31285;BME280;56605;51.516;6.742;2022-11-20T07:25:01;101014.47;;;-1.97;100.00
31285;BME280;56605;51.516;6.742;2022-11-20T07:27:27;101019.75;;;-1.81;100.00
31285;BME280;56605;51.516;6.742;2022-11-20T07:29:53;101014.06;;;-1.89;100.00
31285;BME280;56605;51.516;6.742;2022-11-20T07:32:18;101012.78;;;-1.98;100.00
31285;BME280;56605;51.516;6.742;2022-11-20T07:34:43;101012.06;;;-1.84;100.00
31285;BME280;56605;51.516;6.742;2022-11-20T07:37:09;101012.09;;;-2.01;100.00
31285;BME280;56605;51.516;6.742;2022-11-20T07:39:34;101002.94;;;-1.93;100.00
31285;BME280;56605;51.516;6.742;2022-11-20T07:41:59;101002.28;;;-1.80;100.00
31285;BME280;56605;51.516;6.742;2022-11-20T07:44:24;101003.72;;;-1.74;100.00
31285;BME280;56605;51.516;6.742;2022-11-20T07:46:50;101000.75;;;-1.84;100.00
31285;BME280;56605;51.516;6.742;2022-11-20T07:49:15;100995.91;;;-1.92;100.00
31285;BME280;56605;51.516;6.742;2022-11-20T07:51:40;100987.66;;;-1.84;100.00
31285;BME280;56605;51.516;6.742;2022-11-20T07:54:06;100977.44;;;-1.89;100.00
31285;BME280;56605;51.516;6.742;2022-11-20T07:56:31;100978.16;;;-2.03;100.00
31285;BME280;56605;51.516;6.742;2022-11-20T07:58:56;100980.00;;;-2.05;100.00
31285;BME280;56605;51.516;6.742;2022-11-20T08:01:21;100980.41;;;-1.79;100.00
31285;BME280;56605;51.516;6.742;2022-11-20T08:03:47;100981.66;;;-1.86;100.00
31285;BME280;56605;51.516;6.742;2022-11-20T08:06:12;100984.72;;;-1.78;100.00
31285;BME280;56605;51.516;6.742;2022-11-20T08:08:37;100966.50;;;-1.63;100.00
31285;BME280;56605;51.516;6.742;2022-11-20T08:11:04;100970.63;;;-1.75;100.00
31285;BME280;56605;51.516;6.742;2022-11-20T08:13:48;100978.28;;;-1.88;100.00
31285;BME280;56605;51.516;6.742;2022-11-20T08:16:32;100981.44;;;-1.66;100.00
31285;BME280;56605;51.516;6.742;2022-11-20T08:18:58;100983.22;;;-1.82;100.00
31285;BME280;56605;51.516;6.742;2022-11-20T08:21:23;100973.13;;;-1.90;100.00
31285;BME280;56605;51.516;6.742;2022-11-20T08:23:49;100988.34;;;-1.81;100.00
31285;BME280;56605;51.516;6.742;2022-11-20T08:26:14;100984.84;;;-1.63;100.00
31285;BME280;56605;51.516;6.742;2022-11-20T08:28:39;100985.41;;;-1.58;100.00
31285;BME280;56605;51.516;6.742;2022-11-20T08:31:05;100979.84;;;-1.68;100.00
31285;BME280;56605;51.516;6.742;2022-11-20T08:33:30;100985.25;;;-1.55;100.00
31285;BME280;56605;51.516;6.742;2022-11-20T08:36:02;100983.25;;;-1.50;100.00
31285;BME280;56605;51.516;6.742;2022-11-20T08:38:28;100990.75;;;-1.60;100.00
31285;BME280;56605;51.516;6.742;2022-11-20T08:41:00;100991.09;;;-1.66;100.00
31285;BME280;56605;51.516;6.742;2022-11-20T08:43:44;100991.84;;;-1.48;100.00
31285;BME280;56605;51.516;6.742;2022-11-20T08:46:10;100999.56;;;-1.29;100.00
31285;BME280;56605;51.516;6.742;2022-11-20T08:48:35;100999.84;;;-1.33;100.00
31285;BME280;56605;51.516;6.742;2022-11-20T08:51:00;100997.53;;;-1.39;100.00
31285;BME280;56605;51.516;6.742;2022-11-20T08:53:26;101000.16;;;-1.07;100.00
31285;BME280;56605;51.516;6.742;2022-11-20T08:55:52;100999.97;;;-0.88;100.00
31285;BME280;56605;51.516;6.742;2022-11-20T08:58:17;101010.13;;;-0.82;100.00
31285;BME280;56605;51.516;6.742;2022-11-20T09:00:42;101005.56;;;-0.94;100.00
31285;BME280;56605;51.516;6.742;2022-11-20T09:03:08;100992.44;;;-0.94;100.00
31285;BME280;56605;51.516;6.742;2022-11-20T09:05:33;100987.81;;;-0.89;100.00
31285;BME280;56605;51.516;6.742;2022-11-20T09:07:59;100990.88;;;-0.66;100.00
31285;BME280;56605;51.516;6.742;2022-11-20T09:10:25;100986.16;;;-0.59;100.00
31285;BME280;56605;51.516;6.742;2022-11-20T09:12:52;100988.44;;;-0.69;100.00
31285;BME280;56605;51.516;6.742;2022-11-20T09:15:17;100982.84;;;-0.63;100.00
31285;BME280;56605;51.516;6.742;2022-11-20T09:17:53;100977.78;;;-0.66;100.00
31285;BME280;56605;51.516;6.742;2022-11-20T09:20:19;100978.31;;;-0.45;100.00
31285;BME280;56605;51.516;6.742;2022-11-20T09:22:44;100978.41;;;-0.46;100.00
31285;BME280;56605;51.516;6.742;2022-11-20T09:25:10;100970.41;;;-0.59;100.00
31285;BME280;56605;51.516;6.742;2022-11-20T09:27:35;100965.84;;;-0.41;100.00
31285;BME280;56605;51.516;6.742;2022-11-20T09:30:01;100964.22;;;-0.58;100.00
31285;BME280;56605;51.516;6.742;2022-11-20T09:32:26;100964.06;;;-0.41;100.00
31285;BME280;56605;51.516;6.742;2022-11-20T09:34:51;100954.44;;;-0.40;100.00
31285;BME280;56605;51.516;6.742;2022-11-20T09:37:16;100957.28;;;-0.59;100.00
31285;BME280;56605;51.516;6.742;2022-11-20T09:39:42;100955.03;;;-0.66;100.00
31285;BME280;56605;51.516;6.742;2022-11-20T09:45:15;100957.78;;;-0.38;100.00
31285;BME280;56605;51.516;6.742;2022-11-20T09:47:58;100950.47;;;-0.47;100.00
31285;BME280;56605;51.516;6.742;2022-11-20T09:50:43;100950.47;;;-0.47;100.00
31285;BME280;56605;51.516;6.742;2022-11-20T09:56:01;100946.03;;;-0.02;100.00
31285;BME280;56605;51.516;6.742;2022-11-20T09:58:35;100942.63;;;0.40;100.00
31285;BME280;56605;51.516;6.742;2022-11-20T10:01:10;100936.38;;;-0.01;100.00
31285;BME280;56605;51.516;6.742;2022-11-20T10:03:45;100938.72;;;0.18;100.00
31285;BME280;56605;51.516;6.742;2022-11-20T10:06:17;100933.84;;;0.27;100.00
31285;BME280;56605;51.516;6.742;2022-11-20T10:08:59;100938.41;;;0.37;100.00
31285;BME280;56605;51.516;6.742;2022-11-20T10:14:30;100932.25;;;1.34;100.00
31285;BME280;56605;51.516;6.742;2022-11-20T10:19:51;100932.97;;;0.83;100.00
31285;BME280;56605;51.516;6.742;2022-11-20T10:22:42;100923.13;;;0.72;100.00
31285;BME280;56605;51.516;6.742;2022-11-20T10:25:15;100923.31;;;0.69;100.00
31285;BME280;56605;51.516;6.742;2022-11-20T10:27:52;100912.94;;;0.95;100.00
31285;BME280;56605;51.516;6.742;2022-11-20T10:30:20;100903.22;;;0.95;100.00
31285;BME280;56605;51.516;6.742;2022-11-20T10:32:52;100910.44;;;1.19;100.00
31285;BME280;56605;51.516;6.742;2022-11-20T10:35:35;100882.78;;;1.39;100.00
31285;BME280;56605;51.516;6.742;2022-11-20T10:38:12;100885.00;;;1.98;100.00
31285;BME280;56605;51.516;6.742;2022-11-20T10:40:44;100888.38;;;1.87;100.00
31285;BME280;56605;51.516;6.742;2022-11-20T10:46:00;100889.06;;;2.28;100.00
31285;BME280;56605;51.516;6.742;2022-11-20T10:48:28;100887.91;;;2.06;100.00
31285;BME280;56605;51.516;6.742;2022-11-20T10:51:18;100886.03;;;2.08;100.00
31285;BME280;56605;51.516;6.742;2022-11-20T10:54:09;100879.69;;;2.11;100.00
31285;BME280;56605;51.516;6.742;2022-11-20T10:56:43;100880.91;;;2.80;100.00
31285;BME280;56605;51.516;6.742;2022-11-20T11:01:58;100867.19;;;3.24;100.00
31285;BME280;56605;51.516;6.742;2022-11-20T11:07:04;100855.09;;;3.44;100.00
31285;BME280;56605;51.516;6.742;2022-11-20T11:09:38;100859.41;;;2.98;100.00
31285;BME280;56605;51.516;6.742;2022-11-20T11:12:10;100852.13;;;2.77;100.00
31285;BME280;56605;51.516;6.742;2022-11-20T11:14:50;100849.41;;;2.54;100.00
31285;BME280;56605;51.516;6.742;2022-11-20T11:17:29;100850.38;;;2.89;100.00
31285;BME280;56605;51.516;6.742;2022-11-20T11:22:31;100843.22;;;2.91;100.00
31285;BME280;56605;51.516;6.742;2022-11-20T11:24:57;100836.84;;;2.82;100.00
31285;BME280;56605;51.516;6.742;2022-11-20T11:27:23;100827.13;;;2.83;100.00
31285;BME280;56605;51.516;6.742;2022-11-20T11:29:48;100818.84;;;2.87;100.00
31285;BME280;56605;51.516;6.742;2022-11-20T11:32:17;100827.03;;;2.84;100.00
31285;BME280;56605;51.516;6.742;2022-11-20T11:34:43;100820.88;;;2.72;100.00
31285;BME280;56605;51.516;6.742;2022-11-20T11:37:19;100818.03;;;2.87;100.00
31285;BME280;56605;51.516;6.742;2022-11-20T11:39:47;100816.59;;;2.83;100.00
31285;BME280;56605;51.516;6.742;2022-11-20T11:42:17;100815.28;;;2.88;100.00
31285;BME280;56605;51.516;6.742;2022-11-20T11:44:47;100806.06;;;2.94;100.00
31285;BME280;56605;51.516;6.742;2022-11-20T11:47:44;100799.34;;;2.90;100.00
31285;BME280;56605;51.516;6.742;2022-11-20T11:53:09;100784.94;;;2.83;100.00
31285;BME280;56605;51.516;6.742;2022-11-20T12:01:28;100766.75;;;3.02;100.00
31285;BME280;56605;51.516;6.742;2022-11-20T12:06:37;100760.03;;;2.87;100.00
31285;BME280;56605;51.516;6.742;2022-11-20T12:09:08;100755.56;;;2.76;100.00
31285;BME280;56605;51.516;6.742;2022-11-20T12:11:46;100753.03;;;2.74;100.00
31285;BME280;56605;51.516;6.742;2022-11-20T12:14:34;100752.69;;;2.79;100.00
31285;BME280;56605;51.516;6.742;2022-11-20T12:17:02;100749.19;;;2.78;100.00
31285;BME280;56605;51.516;6.742;2022-11-20T12:19:30;100758.56;;;2.83;100.00
31285;BME280;56605;51.516;6.742;2022-11-20T12:22:21;100753.47;;;2.68;100.00
31285;BME280;56605;51.516;6.742;2022-11-20T12:24:57;100748.84;;;2.83;100.00
31285;BME280;56605;51.516;6.742;2022-11-20T12:30:23;100743.09;;;2.78;100.00
31285;BME280;56605;51.516;6.742;2022-11-20T12:41:00;100741.22;;;3.03;100.00
31285;BME280;56605;51.516;6.742;2022-11-20T12:43:37;100723.34;;;3.07;100.00
31285;BME280;56605;51.516;6.742;2022-11-20T12:46:44;100710.53;;;3.13;100.00
31285;BME280;56605;51.516;6.742;2022-11-20T12:54:46;100702.03;;;3.21;100.00
31285;BME280;56605;51.516;6.742;2022-11-20T12:57:32;100699.38;;;3.33;100.00
31285;BME280;56605;51.516;6.742;2022-11-20T13:02:37;100685.22;;;3.34;100.00
31285;BME280;56605;51.516;6.742;2022-11-20T13:08:02;100671.91;;;3.24;100.00
31285;BME280;56605;51.516;6.742;2022-11-20T13:10:48;100669.88;;;3.16;100.00
31285;BME280;56605;51.516;6.742;2022-11-20T13:13:25;100678.41;;;3.20;100.00
31285;BME280;56605;51.516;6.742;2022-11-20T13:16:00;100675.03;;;3.17;100.00
31285;BME280;56605;51.516;6.742;2022-11-20T13:18:27;100666.38;;;3.15;100.00
31285;BME280;56605;51.516;6.742;2022-11-20T13:20:53;100664.13;;;3.22;100.00
31285;BME280;56605;51.516;6.742;2022-11-20T13:23:26;100664.00;;;3.24;100.00
31285;BME280;56605;51.516;6.742;2022-11-20T13:26:16;100658.00;;;3.22;100.00
31285;BME280;56605;51.516;6.742;2022-11-20T13:28:42;100637.75;;;3.11;100.00
31285;BME280;56605;51.516;6.742;2022-11-20T13:31:28;100637.88;;;3.09;100.00
31285;BME280;56605;51.516;6.742;2022-11-20T13:33:55;100639.44;;;3.00;100.00
31285;BME280;56605;51.516;6.742;2022-11-20T13:36:25;100637.75;;;2.99;100.00
31285;BME280;56605;51.516;6.742;2022-11-20T13:39:00;100640.75;;;2.95;100.00
31285;BME280;56605;51.516;6.742;2022-11-20T13:41:36;100643.41;;;2.95;100.00
31285;BME280;56605;51.516;6.742;2022-11-20T13:46:48;100629.13;;;2.97;100.00
31285;BME280;56605;51.516;6.742;2022-11-20T13:49:29;100622.44;;;2.93;100.00